sensor_id;sensor_type;location;lat;lon;timestamp;P1;durP1;ratioP1;P2;durP2;ratioP2
30617;SDS011;17384;51.214;9.202;2024-01-30T00:01:34;32.65;;;17.45;;
30617;SDS011;17384;51.214;9.202;2024-01-30T00:03:59;39.92;;;17.90;;
30617;SDS011;17384;51.214;9.202;2024-01-30T00:06:25;29.83;;;17.38;;
30617;SDS011;17384;51.214;9.202;2024-01-30T00:08:50;31.40;;;15.48;;
30617;SDS011;17384;51.214;9.202;2024-01-30T00:11:16;29.88;;;16.05;;
30617;SDS011;17384;51.214;9.202;2024-01-30T00:13:41;34.60;;;17.98;;
30617;SDS011;17384;51.214;9.202;2024-01-30T00:16:07;43.88;;;22.15;;
30617;SDS011;17384;51.214;9.202;2024-01-30T00:18:34;47.75;;;24.05;;
30617;SDS011;17384;51.214;9.202;2024-01-30T00:20:59;31.98;;;18.20;;
30617;SDS011;17384;51.214;9.202;2024-01-30T00:23:25;34.45;;;17.83;;
30617;SDS011;17384;51.214;9.202;2024-01-30T00:28:18;40.17;;;20.27;;
30617;SDS011;17384;51.214;9.202;2024-01-30T00:30:44;39.45;;;20.35;;
30617;SDS011;17384;51.214;9.202;2024-01-30T00:33:09;40.30;;;20.63;;
30617;SDS011;17384;51.214;9.202;2024-01-30T00:35:35;40.67;;;21.23;;
30617;SDS011;17384;51.214;9.202;2024-01-30T00:38:00;45.33;;;22.13;;
30617;SDS011;17384;51.214;9.202;2024-01-30T00:40:26;37.55;;;20.05;;
30617;SDS011;17384;51.214;9.202;2024-01-30T00:42:51;33.03;;;19.13;;
30617;SDS011;17384;51.214;9.202;2024-01-30T00:45:17;32.67;;;17.95;;
30617;SDS011;17384;51.214;9.202;2024-01-30T00:47:43;38.85;;;18.27;;
30617;SDS011;17384;51.214;9.202;2024-01-30T00:50:09;38.90;;;22.45;;
30617;SDS011;17384;51.214;9.202;2024-01-30T00:52:35;43.35;;;21.83;;
30617;SDS011;17384;51.214;9.202;2024-01-30T00:55:01;40.97;;;19.73;;
30617;SDS011;17384;51.214;9.202;2024-01-30T00:57:27;38.60;;;18.33;;
30617;SDS011;17384;51.214;9.202;2024-01-30T00:59:53;29.83;;;18.25;;
30617;SDS011;17384;51.214;9.202;2024-01-30T01:02:18;46.85;;;21.40;;
30617;SDS011;17384;51.214;9.202;2024-01-30T01:04:44;41.22;;;21.17;;
30617;SDS011;17384;51.214;9.202;2024-01-30T01:07:10;38.72;;;19.70;;
30617;SDS011;17384;51.214;9.202;2024-01-30T01:09:36;41.10;;;21.10;;
30617;SDS011;17384;51.214;9.202;2024-01-30T01:12:02;38.78;;;19.92;;
30617;SDS011;17384;51.214;9.202;2024-01-30T01:14:28;34.83;;;19.17;;
30617;SDS011;17384;51.214;9.202;2024-01-30T01:16:53;44.58;;;21.63;;
30617;SDS011;17384;51.214;9.202;2024-01-30T01:19:19;46.60;;;21.77;;
30617;SDS011;17384;51.214;9.202;2024-01-30T01:21:44;48.45;;;23.90;;
30617;SDS011;17384;51.214;9.202;2024-01-30T01:24:09;52.72;;;22.92;;
30617;SDS011;17384;51.214;9.202;2024-01-30T01:26:35;42.13;;;21.13;;
30617;SDS011;17384;51.214;9.202;2024-01-30T01:29:00;44.75;;;22.00;;
30617;SDS011;17384;51.214;9.202;2024-01-30T01:31:26;42.78;;;20.85;;
30617;SDS011;17384;51.214;9.202;2024-01-30T01:33:54;65.43;;;28.38;;
30617;SDS011;17384;51.214;9.202;2024-01-30T01:36:20;62.75;;;27.13;;
30617;SDS011;17384;51.214;9.202;2024-01-30T01:38:45;62.38;;;25.60;;
30617;SDS011;17384;51.214;9.202;2024-01-30T01:41:11;50.97;;;24.50;;
30617;SDS011;17384;51.214;9.202;2024-01-30T01:43:36;48.33;;;23.77;;
30617;SDS011;17384;51.214;9.202;2024-01-30T01:46:04;42.28;;;21.40;;
30617;SDS011;17384;51.214;9.202;2024-01-30T01:48:30;39.42;;;19.83;;
30617;SDS011;17384;51.214;9.202;2024-01-30T01:50:55;42.00;;;20.67;;
30617;SDS011;17384;51.214;9.202;2024-01-30T01:53:21;43.72;;;20.70;;
30617;SDS011;17384;51.214;9.202;2024-01-30T01:55:47;40.28;;;20.10;;
30617;SDS011;17384;51.214;9.202;2024-01-30T01:58:13;44.95;;;22.90;;
30617;SDS011;17384;51.214;9.202;2024-01-30T02:00:39;43.85;;;20.50;;
30617;SDS011;17384;51.214;9.202;2024-01-30T02:03:06;31.35;;;17.55;;
30617;SDS011;17384;51.214;9.202;2024-01-30T02:05:35;32.65;;;19.40;;
30617;SDS011;17384;51.214;9.202;2024-01-30T02:08:02;36.10;;;18.75;;
30617;SDS011;17384;51.214;9.202;2024-01-30T02:10:28;35.58;;;18.15;;
30617;SDS011;17384;51.214;9.202;2024-01-30T02:12:53;35.78;;;19.38;;
30617;SDS011;17384;51.214;9.202;2024-01-30T02:15:19;32.97;;;18.02;;
30617;SDS011;17384;51.214;9.202;2024-01-30T02:17:44;38.13;;;19.30;;
30617;SDS011;17384;51.214;9.202;2024-01-30T02:20:10;36.45;;;18.17;;
30617;SDS011;17384;51.214;9.202;2024-01-30T02:22:36;43.33;;;18.80;;
30617;SDS011;17384;51.214;9.202;2024-01-30T02:25:02;33.78;;;18.70;;
30617;SDS011;17384;51.214;9.202;2024-01-30T02:27:28;31.52;;;17.17;;
30617;SDS011;17384;51.214;9.202;2024-01-30T02:29:53;34.70;;;18.80;;
30617;SDS011;17384;51.214;9.202;2024-01-30T02:32:19;34.20;;;18.50;;
30617;SDS011;17384;51.214;9.202;2024-01-30T02:34:44;36.25;;;18.42;;
30617;SDS011;17384;51.214;9.202;2024-01-30T02:37:10;35.38;;;17.95;;
30617;SDS011;17384;51.214;9.202;2024-01-30T02:39:35;35.08;;;19.30;;
30617;SDS011;17384;51.214;9.202;2024-01-30T02:42:01;33.03;;;18.77;;
30617;SDS011;17384;51.214;9.202;2024-01-30T02:44:26;36.42;;;18.40;;
30617;SDS011;17384;51.214;9.202;2024-01-30T02:46:52;31.98;;;18.05;;
30617;SDS011;17384;51.214;9.202;2024-01-30T02:49:19;39.97;;;19.17;;
30617;SDS011;17384;51.214;9.202;2024-01-30T02:51:44;33.45;;;18.27;;
30617;SDS011;17384;51.214;9.202;2024-01-30T02:54:10;36.50;;;18.13;;
30617;SDS011;17384;51.214;9.202;2024-01-30T02:56:36;32.97;;;17.40;;
30617;SDS011;17384;51.214;9.202;2024-01-30T02:59:01;34.03;;;18.63;;
30617;SDS011;17384;51.214;9.202;2024-01-30T03:01:27;33.13;;;18.77;;
30617;SDS011;17384;51.214;9.202;2024-01-30T03:03:52;29.02;;;16.70;;
30617;SDS011;17384;51.214;9.202;2024-01-30T03:06:18;34.42;;;18.40;;
30617;SDS011;17384;51.214;9.202;2024-01-30T03:08:45;33.15;;;18.23;;
30617;SDS011;17384;51.214;9.202;2024-01-30T03:11:10;31.05;;;17.23;;
30617;SDS011;17384;51.214;9.202;2024-01-30T03:13:36;28.45;;;15.95;;
30617;SDS011;17384;51.214;9.202;2024-01-30T03:16:01;35.63;;;17.63;;
30617;SDS011;17384;51.214;9.202;2024-01-30T03:18:27;30.08;;;16.20;;
30617;SDS011;17384;51.214;9.202;2024-01-30T03:20:52;24.98;;;15.63;;
30617;SDS011;17384;51.214;9.202;2024-01-30T03:23:17;32.28;;;17.48;;
30617;SDS011;17384;51.214;9.202;2024-01-30T03:25:43;31.30;;;17.05;;
30617;SDS011;17384;51.214;9.202;2024-01-30T03:28:08;29.55;;;17.40;;
30617;SDS011;17384;51.214;9.202;2024-01-30T03:30:34;33.28;;;18.27;;
30617;SDS011;17384;51.214;9.202;2024-01-30T03:33:00;35.33;;;18.23;;
30617;SDS011;17384;51.214;9.202;2024-01-30T03:35:25;32.17;;;17.40;;
30617;SDS011;17384;51.214;9.202;2024-01-30T03:37:51;35.42;;;17.02;;
30617;SDS011;17384;51.214;9.202;2024-01-30T03:40:16;34.30;;;17.55;;
30617;SDS011;17384;51.214;9.202;2024-01-30T03:42:41;32.40;;;15.93;;
30617;SDS011;17384;51.214;9.202;2024-01-30T03:45:07;35.08;;;16.02;;
30617;SDS011;17384;51.214;9.202;2024-01-30T03:47:33;32.60;;;16.80;;
30617;SDS011;17384;51.214;9.202;2024-01-30T03:49:58;34.33;;;17.27;;
30617;SDS011;17384;51.214;9.202;2024-01-30T03:52:24;30.35;;;16.33;;
30617;SDS011;17384;51.214;9.202;2024-01-30T03:54:49;26.20;;;16.10;;
30617;SDS011;17384;51.214;9.202;2024-01-30T03:57:15;29.52;;;16.48;;
30617;SDS011;17384;51.214;9.202;2024-01-30T03:59:43;29.77;;;17.38;;
30617;SDS011;17384;51.214;9.202;2024-01-30T04:02:10;29.40;;;16.83;;
30617;SDS011;17384;51.214;9.202;2024-01-30T04:04:36;38.33;;;18.27;;
30617;SDS011;17384;51.214;9.202;2024-01-30T04:07:02;42.53;;;19.45;;
30617;SDS011;17384;51.214;9.202;2024-01-30T04:09:27;32.95;;;16.95;;
30617;SDS011;17384;51.214;9.202;2024-01-30T04:11:53;29.23;;;17.30;;
30617;SDS011;17384;51.214;9.202;2024-01-30T04:14:19;29.23;;;16.70;;
30617;SDS011;17384;51.214;9.202;2024-01-30T04:16:44;39.53;;;17.50;;
30617;SDS011;17384;51.214;9.202;2024-01-30T04:19:10;30.00;;;15.82;;
30617;SDS011;17384;51.214;9.202;2024-01-30T04:21:35;34.72;;;17.48;;
30617;SDS011;17384;51.214;9.202;2024-01-30T04:24:01;32.70;;;16.65;;
30617;SDS011;17384;51.214;9.202;2024-01-30T04:26:26;33.42;;;17.08;;
30617;SDS011;17384;51.214;9.202;2024-01-30T04:28:52;28.02;;;16.77;;
30617;SDS011;17384;51.214;9.202;2024-01-30T04:31:17;34.30;;;17.70;;
30617;SDS011;17384;51.214;9.202;2024-01-30T04:33:43;34.92;;;18.10;;
30617;SDS011;17384;51.214;9.202;2024-01-30T04:36:08;29.95;;;16.55;;
30617;SDS011;17384;51.214;9.202;2024-01-30T04:38:38;32.03;;;17.40;;
30617;SDS011;17384;51.214;9.202;2024-01-30T04:41:04;34.15;;;17.45;;
30617;SDS011;17384;51.214;9.202;2024-01-30T04:43:29;31.73;;;17.58;;
30617;SDS011;17384;51.214;9.202;2024-01-30T04:45:56;30.10;;;17.20;;
30617;SDS011;17384;51.214;9.202;2024-01-30T04:48:21;31.08;;;17.23;;
30617;SDS011;17384;51.214;9.202;2024-01-30T04:50:47;29.85;;;16.73;;
30617;SDS011;17384;51.214;9.202;2024-01-30T04:53:12;33.60;;;17.23;;
30617;SDS011;17384;51.214;9.202;2024-01-30T04:55:38;33.10;;;16.40;;
30617;SDS011;17384;51.214;9.202;2024-01-30T04:58:03;30.67;;;17.27;;
30617;SDS011;17384;51.214;9.202;2024-01-30T05:00:29;30.58;;;16.85;;
30617;SDS011;17384;51.214;9.202;2024-01-30T05:02:55;33.60;;;17.63;;
30617;SDS011;17384;51.214;9.202;2024-01-30T05:05:21;29.92;;;17.60;;
30617;SDS011;17384;51.214;9.202;2024-01-30T05:07:46;29.98;;;16.00;;
30617;SDS011;17384;51.214;9.202;2024-01-30T05:10:12;32.25;;;16.65;;
30617;SDS011;17384;51.214;9.202;2024-01-30T05:12:38;32.65;;;17.73;;
30617;SDS011;17384;51.214;9.202;2024-01-30T05:15:04;29.65;;;17.30;;
30617;SDS011;17384;51.214;9.202;2024-01-30T05:17:30;30.77;;;17.02;;
30617;SDS011;17384;51.214;9.202;2024-01-30T05:19:55;30.27;;;16.92;;
30617;SDS011;17384;51.214;9.202;2024-01-30T05:22:20;33.20;;;17.60;;
30617;SDS011;17384;51.214;9.202;2024-01-30T05:24:46;32.05;;;17.33;;
30617;SDS011;17384;51.214;9.202;2024-01-30T05:27:11;28.02;;;15.90;;
30617;SDS011;17384;51.214;9.202;2024-01-30T05:29:38;27.20;;;15.57;;
30617;SDS011;17384;51.214;9.202;2024-01-30T05:32:04;36.10;;;16.42;;
30617;SDS011;17384;51.214;9.202;2024-01-30T05:34:31;33.33;;;17.45;;
30617;SDS011;17384;51.214;9.202;2024-01-30T05:36:56;30.35;;;17.20;;
30617;SDS011;17384;51.214;9.202;2024-01-30T05:39:22;30.20;;;15.98;;
30617;SDS011;17384;51.214;9.202;2024-01-30T05:41:47;29.98;;;16.35;;
30617;SDS011;17384;51.214;9.202;2024-01-30T05:44:13;32.60;;;16.88;;
30617;SDS011;17384;51.214;9.202;2024-01-30T05:46:38;30.25;;;16.75;;
30617;SDS011;17384;51.214;9.202;2024-01-30T05:49:04;29.75;;;17.38;;
30617;SDS011;17384;51.214;9.202;2024-01-30T05:51:29;27.75;;;16.25;;
30617;SDS011;17384;51.214;9.202;2024-01-30T05:53:55;33.38;;;17.92;;
30617;SDS011;17384;51.214;9.202;2024-01-30T05:56:20;33.40;;;17.10;;
30617;SDS011;17384;51.214;9.202;2024-01-30T05:58:46;40.97;;;19.95;;
30617;SDS011;17384;51.214;9.202;2024-01-30T06:01:11;42.33;;;20.95;;
30617;SDS011;17384;51.214;9.202;2024-01-30T06:03:37;35.90;;;19.95;;
30617;SDS011;17384;51.214;9.202;2024-01-30T06:06:03;41.67;;;21.38;;
30617;SDS011;17384;51.214;9.202;2024-01-30T06:08:29;35.88;;;20.27;;
30617;SDS011;17384;51.214;9.202;2024-01-30T06:10:55;38.53;;;18.92;;
30617;SDS011;17384;51.214;9.202;2024-01-30T06:13:20;39.13;;;21.67;;
30617;SDS011;17384;51.214;9.202;2024-01-30T06:15:45;38.75;;;21.05;;
30617;SDS011;17384;51.214;9.202;2024-01-30T06:18:11;46.25;;;23.20;;
30617;SDS011;17384;51.214;9.202;2024-01-30T06:20:36;41.75;;;22.65;;
30617;SDS011;17384;51.214;9.202;2024-01-30T06:23:02;43.88;;;23.02;;
30617;SDS011;17384;51.214;9.202;2024-01-30T06:25:28;41.40;;;21.67;;
30617;SDS011;17384;51.214;9.202;2024-01-30T06:27:53;41.63;;;23.52;;
30617;SDS011;17384;51.214;9.202;2024-01-30T06:30:19;41.42;;;22.08;;
30617;SDS011;17384;51.214;9.202;2024-01-30T06:32:44;28.55;;;16.50;;
30617;SDS011;17384;51.214;9.202;2024-01-30T06:35:10;32.65;;;17.92;;
30617;SDS011;17384;51.214;9.202;2024-01-30T06:37:35;32.00;;;17.58;;
30617;SDS011;17384;51.214;9.202;2024-01-30T06:40:01;39.05;;;17.77;;
30617;SDS011;17384;51.214;9.202;2024-01-30T06:42:29;27.88;;;15.45;;
30617;SDS011;17384;51.214;9.202;2024-01-30T06:44:55;31.20;;;17.40;;
30617;SDS011;17384;51.214;9.202;2024-01-30T06:47:20;38.40;;;19.08;;
30617;SDS011;17384;51.214;9.202;2024-01-30T06:49:46;33.92;;;18.90;;
30617;SDS011;17384;51.214;9.202;2024-01-30T06:52:11;27.50;;;16.83;;
30617;SDS011;17384;51.214;9.202;2024-01-30T06:54:37;36.95;;;17.75;;
30617;SDS011;17384;51.214;9.202;2024-01-30T06:57:02;34.33;;;17.88;;
30617;SDS011;17384;51.214;9.202;2024-01-30T06:59:28;32.05;;;16.50;;
30617;SDS011;17384;51.214;9.202;2024-01-30T07:01:53;38.75;;;18.02;;
30617;SDS011;17384;51.214;9.202;2024-01-30T07:04:19;33.00;;;17.40;;
30617;SDS011;17384;51.214;9.202;2024-01-30T07:06:44;35.20;;;18.27;;
30617;SDS011;17384;51.214;9.202;2024-01-30T07:09:10;37.65;;;19.00;;
30617;SDS011;17384;51.214;9.202;2024-01-30T07:11:38;40.85;;;20.50;;
30617;SDS011;17384;51.214;9.202;2024-01-30T07:14:05;88.50;;;37.25;;
30617;SDS011;17384;51.214;9.202;2024-01-30T07:16:32;61.50;;;25.63;;
30617;SDS011;17384;51.214;9.202;2024-01-30T07:18:58;70.45;;;25.75;;
30617;SDS011;17384;51.214;9.202;2024-01-30T07:21:23;85.22;;;34.92;;
30617;SDS011;17384;51.214;9.202;2024-01-30T07:23:53;76.63;;;28.85;;
30617;SDS011;17384;51.214;9.202;2024-01-30T07:26:20;42.58;;;20.63;;
30617;SDS011;17384;51.214;9.202;2024-01-30T07:28:45;156.30;;;53.97;;
30617;SDS011;17384;51.214;9.202;2024-01-30T07:31:10;65.15;;;28.40;;
30617;SDS011;17384;51.214;9.202;2024-01-30T07:33:36;39.92;;;21.05;;
30617;SDS011;17384;51.214;9.202;2024-01-30T07:36:01;44.70;;;23.42;;
30617;SDS011;17384;51.214;9.202;2024-01-30T07:38:27;43.95;;;21.73;;
30617;SDS011;17384;51.214;9.202;2024-01-30T07:40:55;51.75;;;25.38;;
30617;SDS011;17384;51.214;9.202;2024-01-30T07:43:27;56.92;;;25.45;;
30617;SDS011;17384;51.214;9.202;2024-01-30T07:45:52;54.60;;;27.30;;
30617;SDS011;17384;51.214;9.202;2024-01-30T07:48:18;47.88;;;24.05;;
30617;SDS011;17384;51.214;9.202;2024-01-30T07:50:43;45.85;;;21.75;;
30617;SDS011;17384;51.214;9.202;2024-01-30T07:53:09;42.50;;;22.95;;
30617;SDS011;17384;51.214;9.202;2024-01-30T07:55:34;54.03;;;24.00;;
30617;SDS011;17384;51.214;9.202;2024-01-30T07:58:00;45.88;;;24.40;;
30617;SDS011;17384;51.214;9.202;2024-01-30T08:00:25;44.45;;;23.92;;
30617;SDS011;17384;51.214;9.202;2024-01-30T08:02:51;46.40;;;24.27;;
30617;SDS011;17384;51.214;9.202;2024-01-30T08:05:19;46.90;;;23.80;;
30617;SDS011;17384;51.214;9.202;2024-01-30T08:07:44;44.85;;;22.88;;
30617;SDS011;17384;51.214;9.202;2024-01-30T08:10:11;44.42;;;23.52;;
30617;SDS011;17384;51.214;9.202;2024-01-30T08:12:38;45.15;;;24.42;;
30617;SDS011;17384;51.214;9.202;2024-01-30T08:15:04;41.53;;;21.05;;
30617;SDS011;17384;51.214;9.202;2024-01-30T08:17:30;48.90;;;23.67;;
30617;SDS011;17384;51.214;9.202;2024-01-30T08:19:58;45.90;;;22.95;;
30617;SDS011;17384;51.214;9.202;2024-01-30T08:22:24;46.38;;;23.65;;
30617;SDS011;17384;51.214;9.202;2024-01-30T08:24:49;39.85;;;21.83;;
30617;SDS011;17384;51.214;9.202;2024-01-30T08:27:15;46.22;;;23.55;;
30617;SDS011;17384;51.214;9.202;2024-01-30T08:29:42;43.90;;;24.10;;
30617;SDS011;17384;51.214;9.202;2024-01-30T08:32:07;40.15;;;22.65;;
30617;SDS011;17384;51.214;9.202;2024-01-30T08:34:33;47.67;;;23.30;;
30617;SDS011;17384;51.214;9.202;2024-01-30T08:36:59;44.10;;;23.33;;
30617;SDS011;17384;51.214;9.202;2024-01-30T08:39:24;53.20;;;25.13;;
30617;SDS011;17384;51.214;9.202;2024-01-30T08:41:50;49.35;;;26.33;;
30617;SDS011;17384;51.214;9.202;2024-01-30T08:44:16;48.38;;;26.25;;
30617;SDS011;17384;51.214;9.202;2024-01-30T08:46:42;52.92;;;28.58;;
30617;SDS011;17384;51.214;9.202;2024-01-30T08:49:09;50.92;;;26.95;;
30617;SDS011;17384;51.214;9.202;2024-01-30T08:51:35;42.50;;;24.65;;
30617;SDS011;17384;51.214;9.202;2024-01-30T08:54:01;55.25;;;23.63;;
30617;SDS011;17384;51.214;9.202;2024-01-30T08:56:30;56.78;;;26.65;;
30617;SDS011;17384;51.214;9.202;2024-01-30T08:58:55;49.90;;;28.08;;
30617;SDS011;17384;51.214;9.202;2024-01-30T09:01:21;43.95;;;27.05;;
30617;SDS011;17384;51.214;9.202;2024-01-30T09:03:46;45.97;;;23.67;;
30617;SDS011;17384;51.214;9.202;2024-01-30T09:06:12;41.20;;;22.48;;
30617;SDS011;17384;51.214;9.202;2024-01-30T09:08:38;39.55;;;23.67;;
30617;SDS011;17384;51.214;9.202;2024-01-30T09:11:12;42.28;;;22.88;;
30617;SDS011;17384;51.214;9.202;2024-01-30T09:13:39;44.15;;;23.27;;
30617;SDS011;17384;51.214;9.202;2024-01-30T09:16:05;38.20;;;21.52;;
30617;SDS011;17384;51.214;9.202;2024-01-30T09:18:31;39.20;;;20.75;;
30617;SDS011;17384;51.214;9.202;2024-01-30T09:20:56;38.80;;;22.77;;
30617;SDS011;17384;51.214;9.202;2024-01-30T09:23:22;39.50;;;22.30;;
30617;SDS011;17384;51.214;9.202;2024-01-30T09:25:47;40.67;;;23.52;;
30617;SDS011;17384;51.214;9.202;2024-01-30T09:28:13;44.03;;;23.65;;
30617;SDS011;17384;51.214;9.202;2024-01-30T09:30:39;58.90;;;27.27;;
30617;SDS011;17384;51.214;9.202;2024-01-30T09:33:04;83.50;;;35.58;;
30617;SDS011;17384;51.214;9.202;2024-01-30T09:35:30;77.63;;;34.53;;
30617;SDS011;17384;51.214;9.202;2024-01-30T09:37:55;64.85;;;32.38;;
30617;SDS011;17384;51.214;9.202;2024-01-30T09:40:22;49.95;;;23.38;;
30617;SDS011;17384;51.214;9.202;2024-01-30T09:42:47;39.83;;;23.50;;
30617;SDS011;17384;51.214;9.202;2024-01-30T09:45:15;48.47;;;22.52;;
30617;SDS011;17384;51.214;9.202;2024-01-30T09:47:42;38.25;;;22.48;;
30617;SDS011;17384;51.214;9.202;2024-01-30T09:50:13;42.90;;;25.45;;
30617;SDS011;17384;51.214;9.202;2024-01-30T09:52:39;43.38;;;26.13;;
30617;SDS011;17384;51.214;9.202;2024-01-30T09:55:06;47.35;;;23.15;;
30617;SDS011;17384;51.214;9.202;2024-01-30T09:57:33;45.60;;;23.27;;
30617;SDS011;17384;51.214;9.202;2024-01-30T09:59:59;40.15;;;21.70;;
30617;SDS011;17384;51.214;9.202;2024-01-30T10:02:25;39.80;;;22.30;;
30617;SDS011;17384;51.214;9.202;2024-01-30T10:04:51;35.80;;;21.15;;
30617;SDS011;17384;51.214;9.202;2024-01-30T10:07:17;45.10;;;23.48;;
30617;SDS011;17384;51.214;9.202;2024-01-30T10:09:44;37.70;;;20.85;;
30617;SDS011;17384;51.214;9.202;2024-01-30T10:12:10;39.55;;;21.52;;
30617;SDS011;17384;51.214;9.202;2024-01-30T10:14:39;34.90;;;20.35;;
30617;SDS011;17384;51.214;9.202;2024-01-30T10:17:05;45.35;;;21.65;;
30617;SDS011;17384;51.214;9.202;2024-01-30T10:19:32;33.38;;;19.48;;
30617;SDS011;17384;51.214;9.202;2024-01-30T10:21:59;33.63;;;19.27;;
30617;SDS011;17384;51.214;9.202;2024-01-30T10:24:28;38.65;;;20.45;;
30617;SDS011;17384;51.214;9.202;2024-01-30T10:26:54;42.10;;;20.45;;
30617;SDS011;17384;51.214;9.202;2024-01-30T10:29:20;38.28;;;20.13;;
30617;SDS011;17384;51.214;9.202;2024-01-30T10:31:46;33.10;;;19.70;;
30617;SDS011;17384;51.214;9.202;2024-01-30T10:34:12;32.40;;;18.73;;
30617;SDS011;17384;51.214;9.202;2024-01-30T10:36:41;31.85;;;19.98;;
30617;SDS011;17384;51.214;9.202;2024-01-30T10:39:11;29.50;;;18.50;;
30617;SDS011;17384;51.214;9.202;2024-01-30T10:41:45;33.17;;;19.10;;
30617;SDS011;17384;51.214;9.202;2024-01-30T10:44:13;33.75;;;18.67;;
30617;SDS011;17384;51.214;9.202;2024-01-30T10:46:45;31.35;;;18.33;;
30617;SDS011;17384;51.214;9.202;2024-01-30T10:49:16;36.38;;;19.60;;
30617;SDS011;17384;51.214;9.202;2024-01-30T10:51:41;33.33;;;19.40;;
30617;SDS011;17384;51.214;9.202;2024-01-30T10:54:08;30.80;;;18.88;;
30617;SDS011;17384;51.214;9.202;2024-01-30T10:56:34;34.42;;;18.77;;
30617;SDS011;17384;51.214;9.202;2024-01-30T10:59:00;33.47;;;18.15;;
30617;SDS011;17384;51.214;9.202;2024-01-30T11:01:26;34.15;;;20.00;;
30617;SDS011;17384;51.214;9.202;2024-01-30T11:03:53;41.10;;;20.45;;
30617;SDS011;17384;51.214;9.202;2024-01-30T11:06:27;29.75;;;19.02;;
30617;SDS011;17384;51.214;9.202;2024-01-30T11:09:02;32.05;;;18.98;;
30617;SDS011;17384;51.214;9.202;2024-01-30T11:14:34;33.55;;;19.67;;
30617;SDS011;17384;51.214;9.202;2024-01-30T11:16:59;34.00;;;18.77;;
30617;SDS011;17384;51.214;9.202;2024-01-30T11:19:25;33.22;;;20.35;;
30617;SDS011;17384;51.214;9.202;2024-01-30T11:21:54;31.30;;;18.85;;
30617;SDS011;17384;51.214;9.202;2024-01-30T11:24:22;34.60;;;20.13;;
30617;SDS011;17384;51.214;9.202;2024-01-30T11:26:49;33.58;;;19.65;;
30617;SDS011;17384;51.214;9.202;2024-01-30T11:29:16;34.20;;;19.38;;
30617;SDS011;17384;51.214;9.202;2024-01-30T11:31:51;32.42;;;18.90;;
30617;SDS011;17384;51.214;9.202;2024-01-30T11:34:19;27.77;;;17.95;;
30617;SDS011;17384;51.214;9.202;2024-01-30T11:36:46;32.63;;;19.35;;
30617;SDS011;17384;51.214;9.202;2024-01-30T11:39:27;32.70;;;18.55;;
30617;SDS011;17384;51.214;9.202;2024-01-30T11:41:55;30.83;;;18.27;;
30617;SDS011;17384;51.214;9.202;2024-01-30T11:44:21;29.98;;;16.42;;
30617;SDS011;17384;51.214;9.202;2024-01-30T11:46:50;28.35;;;16.48;;
30617;SDS011;17384;51.214;9.202;2024-01-30T11:49:16;32.58;;;17.17;;
30617;SDS011;17384;51.214;9.202;2024-01-30T11:51:42;25.65;;;16.17;;
30617;SDS011;17384;51.214;9.202;2024-01-30T11:54:10;29.02;;;16.08;;
30617;SDS011;17384;51.214;9.202;2024-01-30T11:56:36;25.23;;;15.90;;
30617;SDS011;17384;51.214;9.202;2024-01-30T11:59:02;26.48;;;17.00;;
30617;SDS011;17384;51.214;9.202;2024-01-30T12:01:27;26.52;;;15.18;;
30617;SDS011;17384;51.214;9.202;2024-01-30T12:03:53;28.33;;;15.75;;
30617;SDS011;17384;51.214;9.202;2024-01-30T12:06:19;24.95;;;14.63;;
30617;SDS011;17384;51.214;9.202;2024-01-30T12:09:00;27.15;;;15.75;;
30617;SDS011;17384;51.214;9.202;2024-01-30T12:11:29;26.88;;;15.88;;
30617;SDS011;17384;51.214;9.202;2024-01-30T12:13:55;24.95;;;15.50;;
30617;SDS011;17384;51.214;9.202;2024-01-30T12:16:21;23.17;;;14.70;;
30617;SDS011;17384;51.214;9.202;2024-01-30T12:18:47;25.50;;;15.40;;
30617;SDS011;17384;51.214;9.202;2024-01-30T12:21:15;21.08;;;14.20;;
30617;SDS011;17384;51.214;9.202;2024-01-30T12:23:41;30.95;;;15.20;;
30617;SDS011;17384;51.214;9.202;2024-01-30T12:26:08;21.25;;;14.25;;
30617;SDS011;17384;51.214;9.202;2024-01-30T12:28:33;25.85;;;14.82;;
30617;SDS011;17384;51.214;9.202;2024-01-30T12:31:05;32.20;;;14.10;;
30617;SDS011;17384;51.214;9.202;2024-01-30T12:33:30;26.52;;;13.85;;
30617;SDS011;17384;51.214;9.202;2024-01-30T12:35:56;26.80;;;14.45;;
30617;SDS011;17384;51.214;9.202;2024-01-30T12:38:23;24.17;;;13.43;;
30617;SDS011;17384;51.214;9.202;2024-01-30T12:40:50;26.10;;;13.18;;
30617;SDS011;17384;51.214;9.202;2024-01-30T12:43:20;20.45;;;13.20;;
30617;SDS011;17384;51.214;9.202;2024-01-30T12:45:46;24.08;;;13.30;;
30617;SDS011;17384;51.214;9.202;2024-01-30T12:48:12;19.52;;;12.65;;
30617;SDS011;17384;51.214;9.202;2024-01-30T12:50:37;28.80;;;13.63;;
30617;SDS011;17384;51.214;9.202;2024-01-30T12:53:03;23.50;;;13.40;;
30617;SDS011;17384;51.214;9.202;2024-01-30T12:55:29;20.40;;;12.77;;
30617;SDS011;17384;51.214;9.202;2024-01-30T12:57:55;22.50;;;11.98;;
30617;SDS011;17384;51.214;9.202;2024-01-30T13:00:21;19.33;;;12.65;;
30617;SDS011;17384;51.214;9.202;2024-01-30T13:02:47;20.10;;;12.63;;
30617;SDS011;17384;51.214;9.202;2024-01-30T13:05:13;25.95;;;12.55;;
30617;SDS011;17384;51.214;9.202;2024-01-30T13:07:39;19.42;;;12.77;;
30617;SDS011;17384;51.214;9.202;2024-01-30T13:10:05;18.92;;;11.52;;
30617;SDS011;17384;51.214;9.202;2024-01-30T13:12:31;21.08;;;11.90;;
30617;SDS011;17384;51.214;9.202;2024-01-30T13:14:59;23.45;;;12.63;;
30617;SDS011;17384;51.214;9.202;2024-01-30T13:17:30;23.70;;;13.25;;
30617;SDS011;17384;51.214;9.202;2024-01-30T13:19:55;22.38;;;12.10;;
30617;SDS011;17384;51.214;9.202;2024-01-30T13:22:24;22.10;;;12.73;;
30617;SDS011;17384;51.214;9.202;2024-01-30T13:24:50;20.58;;;12.00;;
30617;SDS011;17384;51.214;9.202;2024-01-30T13:27:16;20.00;;;12.20;;
30617;SDS011;17384;51.214;9.202;2024-01-30T13:29:42;19.45;;;12.05;;
30617;SDS011;17384;51.214;9.202;2024-01-30T13:32:08;24.17;;;12.77;;
30617;SDS011;17384;51.214;9.202;2024-01-30T13:34:34;22.08;;;13.27;;
30617;SDS011;17384;51.214;9.202;2024-01-30T13:36:59;24.63;;;13.05;;
30617;SDS011;17384;51.214;9.202;2024-01-30T13:39:25;19.85;;;12.05;;
30617;SDS011;17384;51.214;9.202;2024-01-30T13:41:50;26.25;;;13.80;;
30617;SDS011;17384;51.214;9.202;2024-01-30T13:44:16;20.98;;;13.23;;
30617;SDS011;17384;51.214;9.202;2024-01-30T13:46:42;20.92;;;12.68;;
30617;SDS011;17384;51.214;9.202;2024-01-30T13:49:08;18.45;;;12.50;;
30617;SDS011;17384;51.214;9.202;2024-01-30T13:51:39;27.45;;;14.23;;
30617;SDS011;17384;51.214;9.202;2024-01-30T13:54:05;22.80;;;12.63;;
30617;SDS011;17384;51.214;9.202;2024-01-30T13:56:30;18.77;;;12.38;;
30617;SDS011;17384;51.214;9.202;2024-01-30T13:58:56;18.65;;;12.20;;
30617;SDS011;17384;51.214;9.202;2024-01-30T14:01:22;22.65;;;12.75;;
30617;SDS011;17384;51.214;9.202;2024-01-30T14:03:48;27.58;;;13.07;;
30617;SDS011;17384;51.214;9.202;2024-01-30T14:06:14;29.02;;;14.25;;
30617;SDS011;17384;51.214;9.202;2024-01-30T14:08:39;22.70;;;12.52;;
30617;SDS011;17384;51.214;9.202;2024-01-30T14:11:05;18.55;;;12.75;;
30617;SDS011;17384;51.214;9.202;2024-01-30T14:13:30;21.85;;;12.95;;
30617;SDS011;17384;51.214;9.202;2024-01-30T14:15:57;20.15;;;12.38;;
30617;SDS011;17384;51.214;9.202;2024-01-30T14:18:23;21.20;;;13.10;;
30617;SDS011;17384;51.214;9.202;2024-01-30T14:20:50;22.23;;;13.50;;